Time;durP1;ratioP1;P1;durP2;ratioP2;P2;SDS_P1;SDS_P2;PMS_P1;PMS_P2;Temp;Humidity;BMP_temperature;BMP_pressure;BME280_temperature;BME280_humidity;BME280_pressure;Samples;Min_cycle;Max_cycle;Signal;HPM_P1;HPM_P2
2022/02/13 00:00:37;;;;;;;14.95;8.52;;;;;;;;;;5019114;28;20022;-88
2022/02/13 00:03:03;;;;;;;16.63;9.68;;;;;;;;;;5019045;28;20026;-87
2022/02/13 00:05:29;;;;;;;18.58;10.05;;;;;;;;;;5018461;28;20061;-87
2022/02/13 00:07:55;;;;;;;17.00;10.10;;;;;;;;;;5034105;28;20033;-87
2022/02/13 00:10:21;;;;;;;16.65;10.30;;;;;;;;;;5018617;28;20165;-88
2022/02/13 00:12:47;;;;;;;16.60;9.10;;;;;;;;;;5018485;28;20440;-87
2022/02/13 00:15:13;;;;;;;20.15;10.93;;;;;;;;;;5001208;28;20045;-87
2022/02/13 00:17:39;;;;;;;23.10;11.10;;;;;;;;;;5018725;28;20491;-88
2022/02/13 00:20:06;;;;;;;16.20;8.93;;;;;;;;;;5018418;28;20033;-87
2022/02/13 00:22:32;;;;;;;16.05;8.70;;;;;;;;;;5018395;28;20412;-88
2022/02/13 00:24:58;;;;;;;13.95;7.80;;;;;;;;;;5018271;28;20088;-87
2022/02/13 00:27:24;;;;;;;14.82;8.00;;;;;;;;;;5018608;28;20029;-88
2022/02/13 00:29:50;;;;;;;13.40;7.28;;;;;;;;;;5018196;28;20037;-87
2022/02/13 00:32:16;;;;;;;10.30;5.88;;;;;;;;;;5018401;28;20037;-88
2022/02/13 00:34:44;;;;;;;10.50;6.05;;;;;;;;;;5018595;28;20018;-88
2022/02/13 00:37:10;;;;;;;9.02;5.60;;;;;;;;;;5000951;28;20113;-88
2022/02/13 00:39:36;;;;;;;10.90;5.82;;;;;;;;;;5018554;28;20022;-88
2022/02/13 00:42:02;;;;;;;12.15;6.20;;;;;;;;;;5018488;28;20315;-87
2022/02/13 00:44:28;;;;;;;12.23;6.00;;;;;;;;;;5000720;28;20038;-88
2022/02/13 00:46:55;;;;;;;10.73;6.20;;;;;;;;;;5018441;28;20014;-87
2022/02/13 00:49:21;;;;;;;11.25;5.35;;;;;;;;;;5018246;28;20026;-87
2022/02/13 00:51:47;;;;;;;10.30;6.15;;;;;;;;;;5017961;28;20018;-88
2022/02/13 00:54:13;;;;;;;12.40;6.43;;;;;;;;;;5018261;28;20025;-88
2022/02/13 00:56:39;;;;;;;12.25;7.10;;;;;;;;;;5000549;28;20036;-88
2022/02/13 00:59:05;;;;;;;11.05;6.25;;;;;;;;;;5000688;28;20076;-87
2022/02/13 01:01:31;;;;;;;12.48;6.43;;;;;;;;;;5000802;28;20033;-87
2022/02/13 01:03:58;;;;;;;7.97;5.63;;;;;;;;;;5017746;28;20033;-87
2022/02/13 01:06:27;;;;;;;11.82;6.60;;;;;;;;;;5017385;28;20033;-88
2022/02/13 01:11:57;;;;;;;11.13;6.50;;;;;;;;;;5017796;28;20036;-88
2022/02/13 01:14:23;;;;;;;20.55;9.70;;;;;;;;;;5017661;28;20246;-88
2022/02/13 01:16:49;;;;;;;56.25;20.77;;;;;;;;;;5017740;28;20032;-88
2022/02/13 01:19:15;;;;;;;34.20;14.93;;;;;;;;;;5033239;28;20434;-87
2022/02/13 01:21:41;;;;;;;24.20;13.35;;;;;;;;;;5018065;28;20331;-87
2022/02/13 01:27:12;;;;;;;17.48;8.80;;;;;;;;;;5017794;28;20069;-88
2022/02/13 01:29:38;;;;;;;15.63;9.40;;;;;;;;;;5017644;28;20069;-88
2022/02/13 01:32:04;;;;;;;20.55;10.02;;;;;;;;;;5000310;28;20120;-87
2022/02/13 01:34:30;;;;;;;42.00;17.88;;;;;;;;;;5032691;28;20084;-88
2022/02/13 01:36:56;;;;;;;26.52;11.38;;;;;;;;;;5017627;28;20018;-88
2022/02/13 01:39:22;;;;;;;23.65;11.45;;;;;;;;;;5033049;28;20034;-87
2022/02/13 01:41:51;;;;;;;45.40;20.33;;;;;;;;;;5017386;28;20026;-88
2022/02/13 01:44:28;;;;;;;28.33;12.85;;;;;;;;;;5032749;28;20343;-88
2022/02/13 01:46:54;;;;;;;26.08;12.57;;;;;;;;;;5017448;28;20041;-87
2022/02/13 01:49:20;;;;;;;25.70;12.35;;;;;;;;;;5017365;28;20030;-87
2022/02/13 01:51:46;;;;;;;25.65;13.88;;;;;;;;;;5017318;28;20504;-88
2022/02/13 01:54:32;;;;;;;47.00;21.52;;;;;;;;;;5017426;28;20061;-88
2022/02/13 01:56:58;;;;;;;33.72;16.10;;;;;;;;;;5017287;28;20360;-88
2022/02/13 01:59:25;;;;;;;29.98;15.15;;;;;;;;;;5017627;28;20018;-87
2022/02/13 02:01:51;;;;;;;30.95;13.93;;;;;;;;;;5032879;28;20026;-87
2022/02/13 02:04:17;;;;;;;27.73;13.00;;;;;;;;;;5017371;28;20034;-87
2022/02/13 02:06:43;;;;;;;25.35;12.90;;;;;;;;;;5017323;28;20022;-88
2022/02/13 02:09:09;;;;;;;35.70;15.35;;;;;;;;;;5017492;28;20028;-88
2022/02/13 02:11:35;;;;;;;43.28;18.52;;;;;;;;;;5017468;28;20022;-88
2022/02/13 02:14:01;;;;;;;32.25;14.15;;;;;;;;;;5016874;28;20056;-88
2022/02/13 02:16:27;;;;;;;23.20;10.45;;;;;;;;;;5017487;28;20014;-88
2022/02/13 02:18:53;;;;;;;22.70;11.93;;;;;;;;;;5034392;28;20371;-88
2022/02/13 02:21:19;;;;;;;22.73;12.75;;;;;;;;;;5036245;28;20041;-87
2022/02/13 02:26:49;;;;;;;25.52;13.50;;;;;;;;;;5020616;28;20080;-87
2022/02/13 02:29:16;;;;;;;30.63;16.95;;;;;;;;;;5020537;28;20308;-88
2022/02/13 02:31:42;;;;;;;24.58;13.32;;;;;;;;;;5020557;28;20084;-88
2022/02/13 02:34:09;;;;;;;16.30;9.65;;;;;;;;;;5020648;28;20029;-87
2022/02/13 02:36:35;;;;;;;17.58;9.60;;;;;;;;;;5020606;28;20293;-88
2022/02/13 02:39:01;;;;;;;18.67;10.38;;;;;;;;;;5020709;28;20026;-88
2022/02/13 02:41:27;;;;;;;36.08;18.58;;;;;;;;;;5020322;28;20434;-88
2022/02/13 02:43:53;;;;;;;32.35;17.23;;;;;;;;;;5020131;28;20108;-86
2022/02/13 02:46:19;;;;;;;20.48;11.23;;;;;;;;;;5020729;28;20036;-88
2022/02/13 02:48:45;;;;;;;18.35;10.05;;;;;;;;;;5035739;28;20021;-88
2022/02/13 02:51:11;;;;;;;14.95;9.25;;;;;;;;;;5020017;28;20049;-88
2022/02/13 02:53:37;;;;;;;17.80;9.20;;;;;;;;;;5020071;28;20301;-88
2022/02/13 02:56:04;;;;;;;18.52;10.07;;;;;;;;;;5002777;28;20072;-88
2022/02/13 02:58:31;;;;;;;12.95;8.95;;;;;;;;;;5019954;28;20400;-88
2022/02/13 03:00:57;;;;;;;17.23;8.75;;;;;;;;;;5019927;28;20025;-87
2022/02/13 03:03:24;;;;;;;15.25;8.45;;;;;;;;;;5020211;28;20034;-88
2022/02/13 03:05:51;;;;;;;16.95;9.43;;;;;;;;;;5019922;28;20052;-88
2022/02/13 03:08:18;;;;;;;15.27;8.98;;;;;;;;;;5019831;28;20101;-88
2022/02/13 03:10:44;;;;;;;14.75;8.80;;;;;;;;;;5019728;28;20061;-88
2022/02/13 03:13:12;;;;;;;15.30;8.73;;;;;;;;;;5019756;28;20072;-88
2022/02/13 03:15:38;;;;;;;13.75;9.30;;;;;;;;;;5019509;28;20049;-88
2022/02/13 03:18:04;;;;;;;15.07;9.27;;;;;;;;;;5019877;28;20018;-88
2022/02/13 03:20:31;;;;;;;16.15;9.07;;;;;;;;;;5019813;28;20033;-88
2022/02/13 03:22:57;;;;;;;14.52;9.02;;;;;;;;;;5019705;28;20033;-88
2022/02/13 03:25:23;;;;;;;16.17;9.43;;;;;;;;;;5002231;28;20026;-88
2022/02/13 03:27:49;;;;;;;17.00;9.85;;;;;;;;;;5019469;28;20026;-88
2022/02/13 03:30:15;;;;;;;16.30;9.00;;;;;;;;;;5019593;28;20407;-87
2022/02/13 03:32:41;;;;;;;17.75;10.20;;;;;;;;;;5019249;28;20044;-88
2022/02/13 03:35:07;;;;;;;16.35;10.02;;;;;;;;;;5019480;28;20057;-89
2022/02/13 03:38:04;;;;;;;18.10;9.10;;;;;;;;;;5019580;28;20026;-88
2022/02/13 03:40:31;;;;;;;12.77;8.05;;;;;;;;;;5019486;28;20044;-88
2022/02/13 03:42:57;;;;;;;14.20;9.00;;;;;;;;;;5019325;28;20048;-87
2022/02/13 03:45:23;;;;;;;12.90;8.68;;;;;;;;;;5019234;28;20040;-88
2022/02/13 03:47:49;;;;;;;17.60;9.10;;;;;;;;;;5001799;28;20412;-88
2022/02/13 03:50:15;;;;;;;15.70;9.10;;;;;;;;;;5019441;28;20026;-87
2022/02/13 03:59:00;;;;;;;18.00;9.23;;;;;;;;;;5019075;28;20320;-88
2022/02/13 04:01:26;;;;;;;15.00;9.27;;;;;;;;;;5001519;28;20029;-87
2022/02/13 04:03:53;;;;;;;17.90;10.55;;;;;;;;;;5018771;28;20030;-88
2022/02/13 04:06:19;;;;;;;16.50;9.85;;;;;;;;;;5018662;28;20048;-88
2022/02/13 04:08:45;;;;;;;19.88;10.45;;;;;;;;;;5018933;28;20120;-88
2022/02/13 04:11:11;;;;;;;18.08;10.95;;;;;;;;;;5033994;28;20048;-85
2022/02/13 04:13:37;;;;;;;21.65;12.20;;;;;;;;;;5031213;28;20364;-86
2022/02/13 04:16:03;;;;;;;21.63;11.82;;;;;;;;;;5017508;28;20042;-85
2022/02/13 04:18:29;;;;;;;20.88;11.93;;;;;;;;;;5018210;28;20026;-86
2022/02/13 04:20:55;;;;;;;25.23;13.60;;;;;;;;;;5031247;28;20017;-86
2022/02/13 04:23:21;;;;;;;45.38;20.10;;;;;;;;;;5038350;28;20319;-86
2022/02/13 04:25:47;;;;;;;65.53;26.65;;;;;;;;;;5032642;28;20084;-85
2022/02/13 04:28:13;;;;;;;36.40;18.23;;;;;;;;;;5036217;28;20037;-86
2022/02/13 04:30:39;;;;;;;27.40;14.13;;;;;;;;;;5019886;28;20039;-86
2022/02/13 04:33:06;;;;;;;24.30;13.10;;;;;;;;;;5019704;28;20037;-86
2022/02/13 04:35:35;;;;;;;18.88;11.60;;;;;;;;;;5038181;28;20083;-86
2022/02/13 04:44:08;;;;;;;21.38;11.88;;;;;;;;;;5022294;28;20044;-86
2022/02/13 04:46:35;;;;;;;18.83;11.27;;;;;;;;;;5000755;28;20026;-86
2022/02/13 04:49:01;;;;;;;21.98;11.68;;;;;;;;;;5030523;28;20026;-86
2022/02/13 04:51:27;;;;;;;16.27;10.70;;;;;;;;;;5020289;28;20025;-86
2022/02/13 04:53:53;;;;;;;18.02;11.27;;;;;;;;;;5037921;28;20037;-87
2022/02/13 04:56:19;;;;;;;18.55;11.25;;;;;;;;;;5037707;28;20018;-86
2022/02/13 04:58:45;;;;;;;19.38;11.50;;;;;;;;;;5037385;28;20067;-87
2022/02/13 05:01:11;;;;;;;18.98;11.77;;;;;;;;;;5019968;28;20045;-87
2022/02/13 05:03:37;;;;;;;20.65;12.48;;;;;;;;;;5034458;28;20030;-87
2022/02/13 05:06:03;;;;;;;15.75;10.32;;;;;;;;;;5017901;28;20033;-86
2022/02/13 05:08:29;;;;;;;15.77;10.43;;;;;;;;;;5018048;28;20396;-86
2022/02/13 05:10:55;;;;;;;22.40;11.40;;;;;;;;;;5011058;28;20055;-87
2022/02/13 05:13:21;;;;;;;16.33;10.88;;;;;;;;;;5032583;28;20026;-87
2022/02/13 05:15:47;;;;;;;19.00;11.05;;;;;;;;;;5017786;28;20054;-86
2022/02/13 05:18:14;;;;;;;16.60;9.65;;;;;;;;;;5017735;28;20057;-87
2022/02/13 05:20:40;;;;;;;17.17;10.60;;;;;;;;;;5000430;28;20312;-87
2022/02/13 05:23:15;;;;;;;19.48;11.57;;;;;;;;;;5017658;28;20028;-87
2022/02/13 05:25:41;;;;;;;25.15;12.52;;;;;;;;;;5025656;28;20032;-86
2022/02/13 05:28:07;;;;;;;21.83;12.65;;;;;;;;;;5033614;28;20061;-86
2022/02/13 05:30:33;;;;;;;23.67;12.55;;;;;;;;;;5017584;28;20124;-86
2022/02/13 05:32:59;;;;;;;19.33;11.30;;;;;;;;;;5017498;28;20029;-86
2022/02/13 05:35:26;;;;;;;18.98;10.93;;;;;;;;;;5023543;28;20021;-87
2022/02/13 05:37:53;;;;;;;23.02;12.63;;;;;;;;;;5037650;28;20021;-87
2022/02/13 05:46:26;;;;;;;17.20;10.88;;;;;;;;;;5037095;28;20079;-86
2022/02/13 05:48:53;;;;;;;18.80;9.88;;;;;;;;;;5021815;28;20397;-85
2022/02/13 05:51:19;;;;;;;17.90;11.18;;;;;;;;;;5017276;28;20068;-86
2022/02/13 05:53:45;;;;;;;23.65;13.27;;;;;;;;;;5020535;28;20036;-87
2022/02/13 05:56:11;;;;;;;30.17;16.05;;;;;;;;;;5003467;28;20040;-87
2022/02/13 05:58:39;;;;;;;30.00;14.90;;;;;;;;;;5021160;28;20025;-86
2022/02/13 06:01:06;;;;;;;22.05;14.45;;;;;;;;;;5029636;28;20029;-86
2022/02/13 06:03:32;;;;;;;23.98;15.07;;;;;;;;;;5040552;28;20030;-87
2022/02/13 06:05:58;;;;;;;19.52;13.25;;;;;;;;;;5038245;28;20057;-87
2022/02/13 06:08:24;;;;;;;22.50;12.20;;;;;;;;;;5003669;28;20038;-86
2022/02/13 06:10:50;;;;;;;24.52;13.85;;;;;;;;;;5030224;28;20024;-87
2022/02/13 06:13:16;;;;;;;28.17;17.23;;;;;;;;;;5040435;28;20061;-86
2022/02/13 06:15:42;;;;;;;29.13;13.85;;;;;;;;;;5040021;28;20048;-87
2022/02/13 06:18:08;;;;;;;21.27;11.60;;;;;;;;;;5022666;28;20037;-85
2022/02/13 06:20:34;;;;;;;23.13;14.15;;;;;;;;;;5033141;28;20014;-87
2022/02/13 06:23:00;;;;;;;26.17;15.32;;;;;;;;;;5020595;28;20022;-87
2022/02/13 06:25:26;;;;;;;33.28;18.85;;;;;;;;;;5020786;28;20052;-86
2022/02/13 06:27:52;;;;;;;36.88;21.20;;;;;;;;;;5020825;28;20033;-86
2022/02/13 06:30:18;;;;;;;65.28;31.17;;;;;;;;;;5020596;28;20022;-86
2022/02/13 06:32:45;;;;;;;91.03;37.17;;;;;;;;;;5020398;28;20037;-85
2022/02/13 06:35:11;;;;;;;123.60;45.83;;;;;;;;;;5027553;28;20033;-86
2022/02/13 06:37:37;;;;;;;102.30;40.95;;;;;;;;;;5040235;28;20530;-86
2022/02/13 06:40:04;;;;;;;52.58;26.77;;;;;;;;;;5022678;28;20344;-86
2022/02/13 06:42:30;;;;;;;35.05;20.35;;;;;;;;;;5039908;28;20397;-86
2022/02/13 06:44:56;;;;;;;29.48;16.42;;;;;;;;;;5039637;28;20037;-85
2022/02/13 06:47:22;;;;;;;32.90;15.63;;;;;;;;;;5040049;28;20049;-86
2022/02/13 06:49:48;;;;;;;28.60;15.32;;;;;;;;;;5002540;28;20080;-86
2022/02/13 06:52:14;;;;;;;22.17;12.73;;;;;;;;;;5019624;28;20030;-85
2022/02/13 06:57:45;;;;;;;29.00;14.95;;;;;;;;;;5025285;28;20040;-87
2022/02/13 07:00:11;;;;;;;34.90;16.52;;;;;;;;;;5006829;28;20025;-86
2022/02/13 07:02:37;;;;;;;30.20;14.77;;;;;;;;;;5022005;28;20083;-86
2022/02/13 07:05:04;;;;;;;30.45;15.20;;;;;;;;;;5038748;28;20043;-87
2022/02/13 07:07:30;;;;;;;28.70;13.02;;;;;;;;;;5037840;28;20055;-87
2022/02/13 07:09:56;;;;;;;25.08;12.07;;;;;;;;;;5020059;28;20184;-86
2022/02/13 07:12:22;;;;;;;26.55;13.40;;;;;;;;;;5019915;28;20030;-87
2022/02/13 07:14:48;;;;;;;28.35;13.25;;;;;;;;;;5019443;28;20057;-87
2022/02/13 07:17:14;;;;;;;27.65;13.55;;;;;;;;;;5002191;28;20029;-87
2022/02/13 07:19:40;;;;;;;27.33;12.48;;;;;;;;;;5019696;28;20029;-87
2022/02/13 07:22:06;;;;;;;20.45;10.35;;;;;;;;;;5019527;28;20033;-87
2022/02/13 07:24:51;;;;;;;25.55;13.02;;;;;;;;;;5024303;28;20025;-86
2022/02/13 07:27:17;;;;;;;24.10;11.13;;;;;;;;;;5016128;28;20053;-87
2022/02/13 07:29:43;;;;;;;24.15;11.70;;;;;;;;;;5036804;28;20434;-88
2022/02/13 07:32:09;;;;;;;20.08;10.07;;;;;;;;;;5021556;28;20293;-88
2022/02/13 07:34:36;;;;;;;20.73;10.02;;;;;;;;;;5019120;28;20483;-87
2022/02/13 07:37:02;;;;;;;18.98;8.95;;;;;;;;;;5019117;28;20022;-88
2022/02/13 07:39:32;;;;;;;29.77;9.82;;;;;;;;;;5019438;28;20053;-87
2022/02/13 07:41:58;;;;;;;15.63;7.55;;;;;;;;;;5007615;28;20408;-87
2022/02/13 07:44:25;;;;;;;18.65;8.48;;;;;;;;;;5037060;28;20412;-86
2022/02/13 07:46:51;;;;;;;13.45;7.60;;;;;;;;;;5039175;28;20105;-87
2022/02/13 07:49:17;;;;;;;11.93;7.60;;;;;;;;;;5023864;28;20392;-87
2022/02/13 07:51:44;;;;;;;18.05;6.97;;;;;;;;;;5018958;28;20034;-87
2022/02/13 07:54:10;;;;;;;13.48;7.93;;;;;;;;;;5014081;28;20034;-87
2022/02/13 07:56:36;;;;;;;14.57;8.30;;;;;;;;;;5038685;28;20033;-86
2022/02/13 07:59:02;;;;;;;21.63;9.50;;;;;;;;;;5027179;28;20424;-87
2022/02/13 08:01:28;;;;;;;20.55;10.77;;;;;;;;;;5019295;28;20030;-86
2022/02/13 08:03:54;;;;;;;18.60;10.23;;;;;;;;;;5011228;28;20046;-85
2022/02/13 08:06:20;;;;;;;19.20;10.63;;;;;;;;;;5018655;28;20058;-86
2022/02/13 08:08:47;;;;;;;12.52;8.07;;;;;;;;;;5018731;28;20025;-87
2022/02/13 08:11:13;;;;;;;15.43;9.57;;;;;;;;;;5018588;28;20026;-87
2022/02/13 08:13:40;;;;;;;17.05;9.57;;;;;;;;;;5019318;28;20076;-86
2022/02/13 08:16:06;;;;;;;18.40;9.13;;;;;;;;;;5017557;28;20018;-86
2022/02/13 08:18:32;;;;;;;19.15;10.50;;;;;;;;;;5026821;28;20025;-87
2022/02/13 08:20:59;;;;;;;23.67;9.77;;;;;;;;;;5037271;28;20075;-86
2022/02/13 08:23:26;;;;;;;12.15;6.95;;;;;;;;;;5018747;28;20027;-87
2022/02/13 08:28:55;;;;;;;23.35;9.90;;;;;;;;;;5036372;28;20036;-86
2022/02/13 08:31:21;;;;;;;19.23;7.78;;;;;;;;;;5034778;28;20099;-87
2022/02/13 08:33:48;;;;;;;15.25;8.10;;;;;;;;;;5038011;28;20034;-86
2022/02/13 08:36:14;;;;;;;13.70;7.43;;;;;;;;;;5025677;28;20357;-86
2022/02/13 08:38:40;;;;;;;14.50;7.03;;;;;;;;;;5037798;28;20117;-86
2022/02/13 08:41:07;;;;;;;14.07;6.55;;;;;;;;;;5031412;28;20029;-86
2022/02/13 08:43:33;;;;;;;29.90;7.60;;;;;;;;;;5038060;28;20087;-87
2022/02/13 08:46:01;;;;;;;12.07;7.13;;;;;;;;;;5036275;28;20025;-87
2022/02/13 08:48:27;;;;;;;13.85;7.15;;;;;;;;;;5029135;28;20076;-86
2022/02/13 08:50:53;;;;;;;11.60;6.32;;;;;;;;;;5019809;28;20097;-86
2022/02/13 08:53:20;;;;;;;12.77;6.35;;;;;;;;;;5029185;28;20093;-88
2022/02/13 08:55:46;;;;;;;18.35;7.03;;;;;;;;;;5034584;28;20049;-86
2022/02/13 08:58:12;;;;;;;12.68;6.63;;;;;;;;;;5013600;28;20053;-86
2022/02/13 09:00:38;;;;;;;12.18;6.60;;;;;;;;;;5026954;28;20026;-86
2022/02/13 09:03:04;;;;;;;12.20;7.55;;;;;;;;;;5020436;28;20028;-87
2022/02/13 09:05:30;;;;;;;17.73;8.23;;;;;;;;;;5040152;28;20057;-88
2022/02/13 09:07:57;;;;;;;29.13;11.50;;;;;;;;;;5046351;28;20312;-88
2022/02/13 09:10:23;;;;;;;18.83;8.50;;;;;;;;;;5038007;28;20029;-88
2022/02/13 09:12:49;;;;;;;18.58;8.93;;;;;;;;;;5037100;28;20355;-88
2022/02/13 09:15:16;;;;;;;25.42;10.70;;;;;;;;;;5019902;28;20045;-88
2022/02/13 09:17:42;;;;;;;21.00;9.77;;;;;;;;;;5019781;28;20018;-87
2022/02/13 09:20:09;;;;;;;28.65;11.23;;;;;;;;;;5035844;28;20018;-89
2022/02/13 09:22:35;;;;;;;32.90;12.65;;;;;;;;;;5019590;28;20033;-88
2022/02/13 09:25:01;;;;;;;21.67;11.27;;;;;;;;;;5037581;28;20035;-88
2022/02/13 09:27:27;;;;;;;17.25;9.07;;;;;;;;;;5019104;28;20295;-88
2022/02/13 09:29:54;;;;;;;10.95;7.22;;;;;;;;;;5041689;28;20029;-88
2022/02/13 09:32:20;;;;;;;14.02;7.55;;;;;;;;;;5023932;28;20053;-88
2022/02/13 09:34:46;;;;;;;20.73;9.63;;;;;;;;;;5041280;28;20396;-88
2022/02/13 09:37:13;;;;;;;20.90;11.13;;;;;;;;;;5030780;28;20152;-89
2022/02/13 09:39:39;;;;;;;15.50;9.43;;;;;;;;;;5021843;28;20030;-88
2022/02/13 09:42:06;;;;;;;17.77;9.40;;;;;;;;;;5031275;28;20096;-89
2022/02/13 09:44:32;;;;;;;18.67;9.15;;;;;;;;;;5041239;28;20030;-88
2022/02/13 09:46:58;;;;;;;14.55;8.13;;;;;;;;;;5041155;28;20021;-88
2022/02/13 09:49:24;;;;;;;12.43;7.57;;;;;;;;;;5041335;28;20113;-89
2022/02/13 09:51:50;;;;;;;13.32;7.97;;;;;;;;;;5013016;28;20020;-88
2022/02/13 09:54:16;;;;;;;13.63;7.82;;;;;;;;;;5040915;28;20033;-88
2022/02/13 09:56:47;;;;;;;22.27;11.60;;;;;;;;;;5040693;28;20029;-89
2022/02/13 09:59:14;;;;;;;31.40;12.90;;;;;;;;;;5041132;28;20029;-85
2022/02/13 10:01:47;;;;;;;24.40;11.52;;;;;;;;;;5039051;28;20022;-89
2022/02/13 10:04:14;;;;;;;15.25;8.25;;;;;;;;;;5023496;28;20041;-90
2022/02/13 10:06:41;;;;;;;26.15;12.95;;;;;;;;;;5026998;28;20118;-87
2022/02/13 10:09:08;;;;;;;31.92;14.93;;;;;;;;;;5003677;28;20324;-87
2022/02/13 10:11:36;;;;;;;20.38;9.35;;;;;;;;;;5020808;28;20420;-88
2022/02/13 10:14:13;;;;;;;19.65;11.18;;;;;;;;;;5020567;28;20124;-88
2022/02/13 10:16:46;;;;;;;14.48;9.27;;;;;;;;;;5003622;28;20076;-88
2022/02/13 10:19:23;;;;;;;14.63;8.95;;;;;;;;;;5020979;28;20452;-87
2022/02/13 10:22:00;;;;;;;20.52;8.75;;;;;;;;;;5020726;28;20026;-88
2022/02/13 10:24:26;;;;;;;23.13;12.38;;;;;;;;;;5020819;28;20029;-87
2022/02/13 10:26:58;;;;;;;26.45;11.63;;;;;;;;;;5020937;28;20412;-87
2022/02/13 10:29:28;;;;;;;22.73;11.20;;;;;;;;;;5006291;28;20118;-86
2022/02/13 10:32:13;;;;;;;37.38;16.58;;;;;;;;;;5022800;28;20040;-87
2022/02/13 10:34:39;;;;;;;18.55;9.88;;;;;;;;;;5040311;28;20053;-87
2022/02/13 10:37:05;;;;;;;14.52;8.80;;;;;;;;;;5020939;28;20034;-86
2022/02/13 10:39:44;;;;;;;18.08;9.98;;;;;;;;;;5030834;28;20030;-87
2022/02/13 10:42:11;;;;;;;20.00;12.20;;;;;;;;;;5039896;28;20033;-87
2022/02/13 10:44:37;;;;;;;17.95;10.23;;;;;;;;;;5039914;28;20092;-87
2022/02/13 10:47:03;;;;;;;14.70;8.48;;;;;;;;;;5022649;28;20076;-88
2022/02/13 10:49:32;;;;;;;13.20;7.38;;;;;;;;;;5036615;28;20144;-88
2022/02/13 10:51:59;;;;;;;12.60;8.25;;;;;;;;;;5020151;28;20052;-89
2022/02/13 10:57:29;;;;;;;18.77;11.68;;;;;;;;;;5020329;28;20032;-88
2022/02/13 10:59:55;;;;;;;12.10;7.50;;;;;;;;;;5003705;28;20404;-88
2022/02/13 11:02:23;;;;;;;13.70;7.88;;;;;;;;;;5002982;28;20034;-88
2022/02/13 11:04:49;;;;;;;12.63;6.65;;;;;;;;;;5019872;28;20068;-89
2022/02/13 11:07:15;;;;;;;14.57;7.63;;;;;;;;;;5020737;28;20024;-90
2022/02/13 11:12:49;;;;;;;12.35;7.55;;;;;;;;;;5021031;28;20040;-87
2022/02/13 11:15:19;;;;;;;12.77;7.05;;;;;;;;;;5036414;28;20057;-87
2022/02/13 11:17:46;;;;;;;14.10;8.40;;;;;;;;;;5039836;28;20320;-86
2022/02/13 11:20:16;;;;;;;17.58;10.57;;;;;;;;;;5021709;28;20025;-86
2022/02/13 11:22:43;;;;;;;12.93;7.10;;;;;;;;;;5039001;28;20040;-86
2022/02/13 11:28:12;;;;;;;15.35;9.43;;;;;;;;;;5039556;28;20156;-88
2022/02/13 11:30:44;;;;;;;12.30;7.00;;;;;;;;;;5031642;28;20436;-88
2022/02/13 11:33:31;;;;;;;16.27;7.13;;;;;;;;;;5021290;28;20025;-84
2022/02/13 11:36:04;;;;;;;14.52;8.02;;;;;;;;;;4959076;29;20031;-85
2022/02/13 11:38:30;;;;;;;;;;;;;;;;;;4959564;29;20422;-84
2022/02/13 11:40:56;;;;;;;13.35;7.53;;;;;;;;;;4942765;29;19950;-84
2022/02/13 11:43:42;;;;;;;13.75;8.20;;;;;;;;;;4941385;29;20067;-83
2022/02/13 11:46:08;;;;;;;14.02;7.30;;;;;;;;;;4939465;29;20036;-85
2022/02/13 11:48:37;;;;;;;10.82;6.57;;;;;;;;;;4939960;29;20039;-85
2022/02/13 11:51:05;;;;;;;13.50;8.25;;;;;;;;;;4938863;29;20035;-82
2022/02/13 11:53:31;;;;;;;15.82;7.82;;;;;;;;;;4940331;29;20064;-86
2022/02/13 11:56:16;;;;;;;13.68;8.20;;;;;;;;;;4927507;29;20426;-84
2022/02/13 11:58:42;;;;;;;13.07;7.65;;;;;;;;;;4938710;29;20473;-85
2022/02/13 12:01:28;;;;;;;11.63;7.65;;;;;;;;;;4947382;29;20115;-84
2022/02/13 12:03:54;;;;;;;15.38;8.43;;;;;;;;;;4948760;29;20027;-84
2022/02/13 12:06:23;;;;;;;11.27;8.25;;;;;;;;;;4953520;29;20035;-84
2022/02/13 12:09:10;;;;;;;25.70;13.75;;;;;;;;;;5095239;28;20359;-84
2022/02/13 12:11:40;;;;;;;18.42;13.60;;;;;;;;;;5094772;28;20103;-84
2022/02/13 12:14:12;;;;;;;22.35;12.00;;;;;;;;;;5095013;28;20031;-84
2022/02/13 12:16:38;;;;;;;26.15;14.35;;;;;;;;;;5095014;28;20036;-84
2022/02/13 12:19:04;;;;;;;18.50;10.23;;;;;;;;;;5094876;28;20485;-85
2022/02/13 12:21:30;;;;;;;17.83;9.75;;;;;;;;;;5093999;28;20032;-84
2022/02/13 12:24:07;;;;;;;13.07;8.50;;;;;;;;;;5094895;28;20020;-84
2022/02/13 12:26:33;;;;;;;13.82;7.60;;;;;;;;;;5094727;28;20103;-85
2022/02/13 12:29:00;;;;;;;17.15;9.73;;;;;;;;;;5093948;28;20052;-85
2022/02/13 12:31:26;;;;;;;13.68;7.97;;;;;;;;;;5094945;28;20027;-85
2022/02/13 12:33:53;;;;;;;11.73;7.30;;;;;;;;;;5094577;28;20104;-84
2022/02/13 12:36:23;;;;;;;13.02;8.02;;;;;;;;;;5093493;28;20039;-83
2022/02/13 12:38:53;;;;;;;14.55;8.20;;;;;;;;;;5093310;28;20036;-84
2022/02/13 12:41:22;;;;;;;12.07;6.78;;;;;;;;;;5094543;28;20028;-84
2022/02/13 12:43:50;;;;;;;16.75;8.25;;;;;;;;;;5094166;28;20017;-84
2022/02/13 12:46:19;;;;;;;13.20;7.75;;;;;;;;;;5093268;28;20062;-85
2022/02/13 12:48:49;;;;;;;14.60;8.38;;;;;;;;;;5094230;28;20495;-85
2022/02/13 12:51:28;;;;;;;12.25;7.18;;;;;;;;;;5094199;28;20429;-84
2022/02/13 12:53:56;;;;;;;13.20;8.27;;;;;;;;;;5093308;28;20028;-84
2022/02/13 12:56:25;;;;;;;13.75;7.97;;;;;;;;;;5094225;28;20028;-84
2022/02/13 12:58:51;;;;;;;10.23;6.78;;;;;;;;;;5094071;28;20024;-84
2022/02/13 13:01:28;;;;;;;12.13;7.35;;;;;;;;;;5093833;28;20464;-84
2022/02/13 13:03:55;;;;;;;20.55;11.18;;;;;;;;;;5094072;28;20020;-84
2022/02/13 13:06:28;;;;;;;13.75;8.45;;;;;;;;;;5094065;28;20020;-84
2022/02/13 13:08:57;;;;;;;16.85;9.45;;;;;;;;;;5093778;28;20053;-85
2022/02/13 13:11:30;;;;;;;22.25;12.70;;;;;;;;;;5093895;28;20330;-84
2022/02/13 13:14:11;;;;;;;15.57;7.55;;;;;;;;;;5092674;28;20027;-84
2022/02/13 13:16:37;;;;;;;20.92;10.02;;;;;;;;;;5093776;28;20021;-85
2022/02/13 13:19:03;;;;;;;23.20;10.77;;;;;;;;;;5087617;28;20016;-84
2022/02/13 13:21:39;;;;;;;21.50;10.25;;;;;;;;;;5079118;28;20028;-84
2022/02/13 13:24:09;;;;;;;16.20;9.18;;;;;;;;;;5080426;28;20032;-84
2022/02/13 13:26:36;;;;;;;24.15;11.98;;;;;;;;;;5079961;28;20024;-84
2022/02/13 13:29:21;;;;;;;23.77;12.20;;;;;;;;;;5080503;28;20021;-85
2022/02/13 13:32:01;;;;;;;25.40;12.32;;;;;;;;;;5080014;28;20033;-85
2022/02/13 13:34:28;;;;;;;22.80;12.02;;;;;;;;;;5078885;28;20028;-84
2022/02/13 13:36:54;;;;;;;30.45;14.50;;;;;;;;;;5079820;28;20033;-85
2022/02/13 13:39:24;;;;;;;25.55;12.90;;;;;;;;;;5079872;28;20048;-83
2022/02/13 13:41:51;;;;;;;19.55;10.95;;;;;;;;;;5079666;28;20028;-84
2022/02/13 13:44:26;;;;;;;17.67;9.75;;;;;;;;;;5079576;28;20066;-84
2022/02/13 13:46:52;;;;;;;14.68;9.48;;;;;;;;;;5079601;28;20421;-84
2022/02/13 13:49:18;;;;;;;23.73;13.15;;;;;;;;;;5079676;28;20029;-84
2022/02/13 13:51:45;;;;;;;21.23;10.27;;;;;;;;;;5079718;28;20024;-84
2022/02/13 13:54:13;;;;;;;23.90;12.13;;;;;;;;;;5079363;28;20417;-84
2022/02/13 13:56:39;;;;;;;63.10;33.63;;;;;;;;;;5079486;28;20338;-85
2022/02/13 13:59:05;;;;;;;61.00;34.88;;;;;;;;;;5078383;28;20028;-84
2022/02/13 14:01:31;;;;;;;25.75;18.90;;;;;;;;;;5079627;28;20031;-85
2022/02/13 14:03:57;;;;;;;16.08;10.05;;;;;;;;;;5079600;28;20031;-85
2022/02/13 14:06:24;;;;;;;15.32;9.77;;;;;;;;;;5079522;28;20322;-84
2022/02/13 14:08:50;;;;;;;14.93;9.20;;;;;;;;;;5079201;28;20131;-84
2022/02/13 14:11:16;;;;;;;14.57;8.07;;;;;;;;;;5078246;28;20344;-84
2022/02/13 14:13:42;;;;;;;14.43;9.40;;;;;;;;;;5078935;28;20032;-84
2022/02/13 14:16:08;;;;;;;12.68;8.45;;;;;;;;;;5078949;28;20060;-84
2022/02/13 14:18:35;;;;;;;15.35;10.82;;;;;;;;;;5079003;28;20440;-84
2022/02/13 14:21:01;;;;;;;14.60;11.50;;;;;;;;;;5079096;28;20025;-84
2022/02/13 14:23:28;;;;;;;16.67;11.27;;;;;;;;;;5078834;28;20069;-84
2022/02/13 14:25:54;;;;;;;27.83;16.73;;;;;;;;;;5078748;28;20024;-84
2022/02/13 14:28:20;;;;;;;17.85;12.20;;;;;;;;;;5078790;28;20322;-84
2022/02/13 14:30:48;;;;;;;16.98;11.32;;;;;;;;;;5076909;28;20464;-84
2022/02/13 14:33:14;;;;;;;13.88;9.15;;;;;;;;;;5078927;28;20067;-84
2022/02/13 14:35:40;;;;;;;16.27;9.23;;;;;;;;;;5078865;28;20021;-84
2022/02/13 14:38:06;;;;;;;16.15;8.32;;;;;;;;;;5077347;28;20044;-84
2022/02/13 14:40:32;;;;;;;13.30;9.30;;;;;;;;;;5078445;28;20066;-84
2022/02/13 14:42:58;;;;;;;13.00;8.77;;;;;;;;;;5077214;28;20031;-84
2022/02/13 14:45:25;;;;;;;18.73;10.35;;;;;;;;;;5078602;28;20021;-84
2022/02/13 14:47:51;;;;;;;13.40;9.00;;;;;;;;;;5078568;28;20054;-84
2022/02/13 14:50:18;;;;;;;16.77;10.20;;;;;;;;;;5078459;28;20024;-84
2022/02/13 14:52:44;;;;;;;16.17;10.50;;;;;;;;;;5077342;28;20407;-84
2022/02/13 14:55:10;;;;;;;17.08;11.13;;;;;;;;;;5078255;28;20024;-83
2022/02/13 14:57:37;;;;;;;24.50;12.43;;;;;;;;;;5078035;28;20028;-84
2022/02/13 15:00:04;;;;;;;19.80;12.27;;;;;;;;;;5078411;28;20069;-85
2022/02/13 15:02:30;;;;;;;24.92;14.32;;;;;;;;;;5077838;28;20047;-84
2022/02/13 15:04:56;;;;;;;19.83;12.60;;;;;;;;;;5078166;28;20020;-84
2022/02/13 15:07:24;;;;;;;24.88;15.45;;;;;;;;;;5077967;28;20068;-84